Terminal Aerodrome Forecast
Issued by NWS Northern Indiana

Home | Current Version | Previous Version | Graphics & Text | Print | Product List | Glossary On
Versions: 1 2 3 4 5 6 7 8 9 10 11 12 13 14 15 16 17 18
956
FTUS43 KIWX 031121
TAFFWA
TAF
KFWA 031121Z 0312/0412 05005KT 4SM BR BKN005 OVC020
     FM031400 26007KT P6SM SCT020 BKN040
     FM040000 22007KT P6SM OVC035=

USA.gov is the U.S. government's official web portal to all federal, state and local government web resources and services.